Time;durP1;ratioP1;P1;durP2;ratioP2;P2;SDS_P1;SDS_P2;PMS_P1;PMS_P2;Temp;Humidity;BMP_temperature;BMP_pressure;BME280_temperature;BME280_humidity;BME280_pressure;Samples;Min_cycle;Max_cycle;Signal;HPM_P1;HPM_P2
2022/05/02 00:01:40;;;;;;;6.53;4.33;;;9.30;52.70;;;;;;5114517;28;20214;-83
2022/05/02 00:04:07;;;;;;;7.63;4.20;;;9.30;63.60;;;;;;5114947;28;20187;-85
2022/05/02 00:06:34;;;;;;;6.83;4.50;;;9.20;70.00;;;;;;5114873;28;20201;-84
2022/05/02 00:09:01;;;;;;;8.83;4.20;;;9.20;70.70;;;;;;5114820;28;20223;-84
2022/05/02 00:11:30;;;;;;;5.70;3.90;;;9.20;77.10;;;;;;5114554;28;20663;-84
2022/05/02 00:13:57;;;;;;;7.60;3.90;;;9.20;80.30;;;;;;5114713;28;20227;-84
2022/05/02 00:16:23;;;;;;;9.57;4.50;;;9.30;72.00;;;;;;5114796;28;20195;-84
2022/05/02 00:18:50;;;;;;;8.17;4.43;;;9.30;69.80;;;;;;5114350;28;20641;-85
2022/05/02 00:21:17;;;;;;;8.57;4.20;;;9.20;63.10;;;;;;5114083;28;20220;-84
2022/05/02 00:23:44;;;;;;;8.03;3.80;;;9.20;54.90;;;;;;5114535;28;20191;-84
2022/05/02 00:26:11;;;;;;;5.87;3.90;;;9.20;51.60;;;;;;5114741;28;20229;-84
2022/05/02 00:28:40;;;;;;;6.90;3.90;;;9.20;47.60;;;;;;5114452;28;20187;-84
2022/05/02 00:31:06;;;;;;;6.30;3.97;;;9.30;44.80;;;;;;5114637;28;20303;-84
2022/05/02 00:33:33;;;;;;;8.37;4.33;;;9.30;40.60;;;;;;5114454;28;20193;-85
2022/05/02 00:36:00;;;;;;;6.53;4.10;;;9.30;45.50;;;;;;5113940;28;20278;-84
2022/05/02 00:38:27;;;;;;;5.70;4.30;;;9.30;51.80;;;;;;5113087;28;20229;-85
2022/05/02 00:40:54;;;;;;;7.47;4.47;;;9.30;56.20;;;;;;5113833;28;20201;-83
2022/05/02 00:43:21;;;;;;;7.23;4.43;;;9.30;68.00;;;;;;5113755;28;20259;-85
2022/05/02 00:45:50;;;;;;;7.53;4.20;;;9.30;89.30;;;;;;5114027;27;20616;-84
2022/05/02 00:48:17;;;;;;;5.73;4.20;;;9.30;99.90;;;;;;5113936;28;20194;-85
2022/05/02 00:50:47;;;;;;;6.57;4.07;;;9.30;99.90;;;;;;5113961;28;20594;-85
2022/05/02 00:53:16;;;;;;;8.30;4.07;;;9.30;99.90;;;;;;5114245;28;20202;-84
2022/05/02 00:55:44;;;;;;;6.77;4.23;;;9.30;99.90;;;;;;5113817;28;20698;-84
2022/05/02 00:58:11;;;;;;;6.10;3.90;;;9.30;99.90;;;;;;5113594;28;20183;-85
2022/05/02 01:00:39;;;;;;;6.60;4.20;;;9.30;99.90;;;;;;5113488;28;20278;-85
2022/05/02 01:03:09;;;;;;;6.00;4.07;;;9.30;99.90;;;;;;5113800;28;20295;-85
2022/05/02 01:07:08;;;;;;;6.10;3.93;;;9.40;99.90;;;;;;5113724;28;20202;-84
2022/05/02 01:08:29;;;;;;;11.87;4.70;;;9.40;99.90;;;;;;5113334;28;20183;-85
2022/05/02 01:10:57;;;;;;;8.57;4.47;;;9.50;99.90;;;;;;5113845;28;20191;-85
2022/05/02 01:13:34;;;;;;;8.27;4.20;;;9.50;99.90;;;;;;5113587;28;20251;-84
2022/05/02 01:16:08;;;;;;;10.63;4.07;;;9.50;99.90;;;;;;5113584;28;20273;-84
2022/05/02 01:18:37;;;;;;;6.93;3.90;;;9.50;99.90;;;;;;5113060;28;20218;-85
2022/05/02 01:21:09;;;;;;;5.37;3.97;;;9.50;99.90;;;;;;5113376;28;20205;-85
2022/05/02 01:23:36;;;;;;;9.37;4.13;;;9.50;99.90;;;;;;5113050;28;20691;-84
2022/05/02 01:26:03;;;;;;;7.50;3.90;;;9.50;99.90;;;;;;5112893;28;20212;-84
2022/05/02 01:28:30;;;;;;;5.93;3.93;;;9.50;99.90;;;;;;5113456;28;20197;-85
2022/05/02 01:30:58;;;;;;;7.10;4.50;;;9.40;99.90;;;;;;5113322;28;20258;-84
2022/05/02 01:33:24;;;;;;;8.77;4.43;;;9.40;99.90;;;;;;5113122;28;20282;-85
2022/05/02 01:35:51;;;;;;;6.27;4.53;;;9.40;99.90;;;;;;5113377;28;20269;-85
2022/05/02 01:38:20;;;;;;;5.83;4.03;;;9.40;99.90;;;;;;5112528;28;20225;-84
2022/05/02 01:40:46;;;;;;;5.70;3.87;;;9.40;99.90;;;;;;5113228;28;20222;-84
2022/05/02 01:43:13;;;;;;;7.40;4.73;;;9.40;99.90;;;;;;5113224;28;20221;-85
2022/05/02 01:45:40;;;;;;;8.30;3.90;;;9.40;99.90;;;;;;5113277;28;20226;-85
2022/05/02 01:48:08;;;;;;;5.40;4.13;;;9.50;99.90;;;;;;5112662;28;20250;-84
2022/05/02 01:50:34;;;;;;;8.53;4.70;;;9.50;99.90;;;;;;5112909;28;20282;-85
2022/05/02 01:53:01;;;;;;;6.10;4.33;;;9.40;99.90;;;;;;5112880;28;20290;-84
2022/05/02 01:55:30;;;;;;;9.37;4.80;;;9.50;99.90;;;;;;5112849;28;20188;-85
2022/05/02 01:57:57;;;;;;;8.03;4.73;;;9.50;99.90;;;;;;5112621;28;20227;-85
2022/05/02 02:00:24;;;;;;;5.53;4.13;;;9.50;99.90;;;;;;5112832;28;20226;-85
2022/05/02 02:02:51;;;;;;;6.87;4.50;;;9.50;99.90;;;;;;5112399;28;20250;-86
2022/05/02 02:08:03;;;;;;;5.80;3.90;;;9.40;99.90;;;;;;5112587;28;20300;-84
2022/05/02 02:10:31;;;;;;;9.63;4.10;;;9.50;99.90;;;;;;5112584;28;20195;-84
2022/05/02 02:12:58;;;;;;;9.53;4.87;;;9.40;99.90;;;;;;5112809;28;20234;-84
2022/05/02 02:15:25;;;;;;;6.97;4.30;;;9.40;99.90;;;;;;5112686;28;20282;-85
2022/05/02 02:17:52;;;;;;;5.93;4.43;;;9.30;99.90;;;;;;5112337;28;20269;-86
2022/05/02 02:20:19;;;;;;;6.73;4.73;;;9.30;99.90;;;;;;5112551;28;20281;-84
2022/05/02 02:22:46;;;;;;;6.83;4.67;;;9.30;99.90;;;;;;5112728;28;20219;-85
2022/05/02 02:25:13;;;;;;;7.97;4.47;;;9.20;99.90;;;;;;5112682;28;20280;-84
2022/05/02 02:27:42;;;;;;;8.10;4.77;;;9.20;99.90;;;;;;5112511;28;20278;-86
2022/05/02 02:30:10;;;;;;;7.00;5.10;;;9.10;99.90;;;;;;5112455;28;20303;-85
2022/05/02 02:32:37;;;;;;;10.00;5.30;;;9.10;99.90;;;;;;5112127;28;20294;-85
2022/05/02 02:35:05;;;;;;;7.70;5.50;;;9.00;99.90;;;;;;5112227;28;20196;-84
2022/05/02 02:37:32;;;;;;;8.90;5.57;;;8.90;99.90;;;;;;5112227;28;20216;-84
2022/05/02 02:39:59;;;;;;;9.40;5.20;;;8.80;99.90;;;;;;5112159;28;20201;-85
2022/05/02 02:42:26;;;;;;;8.33;5.57;;;8.60;99.90;;;;;;5112055;27;20248;-85
2022/05/02 02:44:54;;;;;;;6.53;5.30;;;8.50;99.90;;;;;;5111940;28;20667;-85
2022/05/02 02:47:21;;;;;;;9.63;5.80;;;8.40;99.90;;;;;;5112391;28;20237;-85
2022/05/02 02:49:48;;;;;;;7.70;5.37;;;8.30;99.90;;;;;;5111979;28;20685;-85
2022/05/02 02:52:15;;;;;;;10.47;5.80;;;8.20;99.90;;;;;;5112559;28;20225;-84
2022/05/02 02:54:42;;;;;;;9.87;6.07;;;8.10;99.90;;;;;;5112130;28;20272;-85
2022/05/02 02:57:09;;;;;;;8.93;5.60;;;8.00;99.90;;;;;;5112147;28;20233;-85
2022/05/02 02:59:36;;;;;;;8.83;5.57;;;7.90;99.90;;;;;;5112224;28;20233;-85
2022/05/02 03:02:07;;;;;;;7.03;5.50;;;7.80;99.90;;;;;;5114538;28;20243;-85
2022/05/02 03:07:18;;;;;;;7.27;5.57;;;7.60;99.90;;;;;;5115442;28;20190;-86
2022/05/02 03:09:45;;;;;;;8.10;5.67;;;7.50;99.90;;;;;;5116012;28;20218;-85
2022/05/02 03:12:13;;;;;;;11.17;5.60;;;7.50;99.90;;;;;;5115781;28;20210;-85
2022/05/02 03:14:40;;;;;;;8.73;5.90;;;7.50;99.90;;;;;;5116047;28;20199;-84
2022/05/02 03:17:08;;;;;;;8.47;6.03;;;7.40;99.90;;;;;;5115933;28;20245;-87
2022/05/02 03:19:35;;;;;;;8.47;5.80;;;7.40;1.00;;;;;;5115486;28;20670;-85
2022/05/02 03:22:02;;;;;;;13.73;11.30;;;7.40;99.90;;;;;;5115635;28;20222;-85
2022/05/02 03:24:29;;;;;;;9.03;6.03;;;7.40;99.90;;;;;;5115465;28;20651;-85
2022/05/02 03:26:56;;;;;;;7.50;5.43;;;7.40;99.90;;;;;;5116099;28;20222;-85
2022/05/02 03:29:24;;;;;;;9.40;5.70;;;7.40;99.90;;;;;;5115568;28;20187;-86
2022/05/02 03:31:51;;;;;;;8.33;5.40;;;7.30;99.90;;;;;;5115458;28;20606;-85
2022/05/02 03:34:19;;;;;;;10.90;6.10;;;7.30;99.90;;;;;;5115793;28;20222;-85
2022/05/02 03:36:46;;;;;;;8.20;5.90;;;7.30;99.90;;;;;;5115527;28;20266;-86
2022/05/02 03:39:13;;;;;;;9.83;6.03;;;7.20;99.90;;;;;;5115668;28;20218;-85
2022/05/02 03:41:40;;;;;;;10.40;5.33;;;7.20;99.90;;;;;;5115406;28;20194;-84
2022/05/02 03:44:07;;;;;;;8.20;5.23;;;7.20;99.90;;;;;;5115334;28;20220;-85
2022/05/02 03:46:34;;;;;;;9.30;5.40;;;7.20;99.90;;;;;;5114574;28;20235;-86
2022/05/02 03:49:01;;;;;;;8.27;5.30;;;7.20;99.90;;;;;;5114820;28;20196;-85
2022/05/02 03:51:29;;;;;;;9.50;5.80;;;7.30;1.00;;;;;;5114889;28;20277;-85
2022/05/02 03:53:56;;;;;;;9.87;6.40;;;7.30;1.00;;;;;;5114518;28;20705;-85
2022/05/02 03:56:23;;;;;;;8.13;5.63;;;7.30;1.00;;;;;;5114641;28;20223;-85
2022/05/02 03:58:51;;;;;;;10.67;5.57;;;7.40;1.00;;;;;;5114194;28;20228;-86
2022/05/02 04:01:19;;;;;;;7.93;5.40;;;7.40;1.00;;;;;;5114782;28;20192;-86
2022/05/02 04:03:46;;;;;;;7.57;5.57;;;7.50;1.00;;;;;;5115292;28;20210;-85
2022/05/02 04:06:13;;;;;;;15.23;11.63;;;7.50;1.00;;;;;;5114831;28;20190;-84
2022/05/02 04:08:41;;;;;;;9.37;6.53;;;7.50;1.00;;;;;;5114847;28;20185;-86
2022/05/02 04:11:08;;;;;;;10.13;6.40;;;7.60;1.00;;;;;;5114799;28;20238;-85
2022/05/02 04:13:35;;;;;;;8.73;6.00;;;7.60;1.00;;;;;;5115026;28;20232;-85
2022/05/02 04:16:02;;;;;;;8.63;5.63;;;7.70;1.00;;;;;;5114655;28;20229;-85
2022/05/02 04:18:29;;;;;;;7.37;5.53;;;7.70;1.00;;;;;;5114946;28;20681;-84
2022/05/02 04:20:56;;;;;;;7.27;6.03;;;7.80;1.00;;;;;;5114795;28;20231;-85
2022/05/02 04:23:23;;;;;;;7.33;5.57;;;7.90;1.00;;;;;;5114729;28;20308;-86
2022/05/02 04:25:51;;;;;;;8.40;6.03;;;8.10;1.00;;;;;;5114326;28;21097;-87
2022/05/02 04:28:18;;;;;;;9.07;5.73;;;8.30;1.00;;;;;;5114384;28;20202;-85
2022/05/02 04:30:45;;;;;;;8.10;5.00;;;8.60;1.00;;;;;;5114390;28;20636;-85
2022/05/02 04:33:12;;;;;;;7.07;4.93;;;9.10;1.00;;;;;;5114267;28;20203;-86
2022/05/02 04:35:39;;;;;;;5.80;4.97;;;9.80;1.00;;;;;;5114320;28;20189;-86
2022/05/02 04:38:07;;;;;;;6.87;5.10;;;10.60;1.00;;;;;;5114351;28;20192;-85
2022/05/02 04:40:33;;;;;;;7.37;4.67;;;11.30;1.00;;;;;;5114195;28;20616;-87
2022/05/02 04:43:02;;;;;;;5.40;4.47;;;12.00;99.90;;;;;;5114171;28;20276;-84
2022/05/02 04:45:29;;;;;;;7.63;4.50;;;12.70;99.90;;;;;;5114133;28;20188;-84
2022/05/02 04:47:57;;;;;;;6.50;4.40;;;13.50;99.90;;;;;;5114251;28;20281;-84
2022/05/02 04:50:24;;;;;;;4.87;4.37;;;14.20;88.80;;;;;;5114032;28;20683;-84
2022/05/02 04:52:51;;;;;;;5.30;4.07;;;14.60;1.00;;;;;;5114326;28;20229;-84
2022/05/02 04:55:18;;;;;;;5.80;4.07;;;14.40;1.00;;;;;;5114200;28;20746;-87
2022/05/02 04:57:45;;;;;;;6.87;4.23;;;14.10;1.00;;;;;;5114306;28;20193;-88
2022/05/02 05:00:16;;;;;;;5.83;4.27;;;14.10;1.00;;;;;;5114089;28;20229;-88
2022/05/02 05:02:43;;;;;;;5.90;4.47;;;14.10;1.00;;;;;;5114164;28;20191;-86
2022/05/02 05:05:10;;;;;;;11.30;8.60;;;14.40;1.00;;;;;;5115591;28;20224;-87
2022/05/02 05:07:37;;;;;;;6.82;4.90;;;14.90;1.00;;;;;;5113012;28;20229;-87
2022/05/02 05:10:05;;;;;;;8.20;4.90;;;15.70;1.00;;;;;;5114005;28;20274;-89
2022/05/02 05:12:43;;;;;;;;;;;16.50;1.00;;;;;;5114614;28;20279;-89
2022/05/02 05:18:25;;;;;;;6.70;3.90;;;17.50;1.00;;;;;;5114238;28;20220;-89
2022/05/02 05:21:00;;;;;;;7.50;4.60;;;18.00;1.00;;;;;;5114093;28;20225;-87
2022/05/02 05:23:48;;;;;;;6.78;4.45;;;18.30;1.00;;;;;;5113120;28;20289;-88
2022/05/02 05:26:21;;;;;;;6.55;4.10;;;18.60;1.00;;;;;;5113692;28;20172;-88
2022/05/02 05:29:13;;;;;;;5.50;4.30;;;18.80;1.00;;;;;;5114426;28;20240;-89
2022/05/02 05:31:53;;;;;;;5.53;4.43;;;19.20;1.00;;;;;;5114033;28;20593;-88
2022/05/02 05:34:30;;;;;;;8.27;5.30;;;19.50;1.00;;;;;;5114477;28;20270;-88
2022/05/02 05:37:33;;;;;;;7.50;4.68;;;19.70;1.00;;;;;;5113514;28;20262;-88
2022/05/02 05:40:07;;;;;;;5.82;4.53;;;19.90;1.00;;;;;;5113969;28;20561;-90
2022/05/02 05:42:55;;;;;;;8.23;5.15;;;20.20;1.00;;;;;;5114111;28;20273;-88
2022/05/02 05:45:34;;;;;;;6.25;4.35;;;20.50;1.00;;;;;;5114249;28;20673;-90
2022/05/02 05:48:12;;;;;;;6.90;4.65;;;20.80;1.00;;;;;;5113654;28;20277;-90
2022/05/02 05:50:45;;;;;;;6.13;4.40;;;21.10;1.00;;;;;;5113701;28;20266;-89
2022/05/02 05:53:24;;;;;;;5.57;4.20;;;21.30;1.00;;;;;;5113743;28;20221;-88
2022/05/02 05:56:06;;;;;;;6.30;4.57;;;21.60;1.00;;;;;;5113824;28;20240;-88
2022/05/02 05:58:45;;;;;;;6.80;4.32;;;22.20;1.00;;;;;;5113587;28;20269;-88
2022/05/02 06:01:15;;;;;;;7.30;4.18;;;22.90;1.00;;;;;;5113551;28;20175;-88
2022/05/02 06:03:57;;;;;;;7.53;4.45;;;23.40;1.00;;;;;;5113546;28;20246;-86
2022/05/02 06:06:24;;;;;;;5.10;4.15;;;24.10;1.00;;;;;;5113508;28;20179;-90
2022/05/02 06:08:53;;;;;;;7.90;4.13;;;24.50;1.00;;;;;;5113626;28;20226;-88
2022/05/02 06:11:20;;;;;;;9.23;4.50;;;24.80;1.00;;;;;;5112822;28;20187;-90
2022/05/02 06:13:52;;;;;;;6.07;4.20;;;25.20;1.00;;;;;;5113539;28;20279;-90
2022/05/02 06:19:10;;;;;;;6.38;4.38;;;26.20;1.00;;;;;;5113327;28;20254;-90
2022/05/02 06:21:40;;;;;;;6.80;4.20;;;27.20;1.00;;;;;;5113399;28;20179;-89
2022/05/02 06:24:12;;;;;;;6.57;4.03;;;27.90;1.00;;;;;;5113616;28;20190;-88
2022/05/02 06:26:40;;;;;;;7.13;4.13;;;28.80;1.00;;;;;;5113301;28;20181;-89
2022/05/02 06:29:08;;;;;;;5.38;3.88;;;29.40;1.00;;;;;;5113184;28;20272;-90
2022/05/02 06:31:37;;;;;;;5.70;3.80;;;29.90;1.00;;;;;;5112693;28;20593;-91
2022/05/02 06:34:06;;;;;;;4.32;3.78;;;30.00;1.00;;;;;;5113071;28;20301;-90
2022/05/02 06:37:11;;;;;;;5.95;3.75;;;29.90;1.00;;;;;;5114805;28;20647;-88
2022/05/02 06:39:52;;;;;;;4.00;3.45;;;29.90;1.00;;;;;;5104901;28;20273;-91
2022/05/02 06:42:28;;;;;;;4.63;3.67;;;29.80;1.00;;;;;;5116791;28;20214;-89
2022/05/02 06:45:04;;;;;;;6.30;3.80;;;29.80;1.00;;;;;;5117290;28;20237;-88
2022/05/02 06:47:42;;;;;;;6.15;3.90;;;30.00;1.00;;;;;;5116920;28;20211;-88
2022/05/02 06:50:11;;;;;;;5.88;4.03;;;30.80;1.00;;;;;;5116662;28;20609;-90
2022/05/02 06:52:43;;;;;;;5.47;4.10;;;31.50;1.00;;;;;;5116847;28;20229;-88
2022/05/02 06:55:22;;;;;;;5.70;3.90;;;32.10;1.00;;;;;;5116409;28;20200;-89
2022/05/02 06:58:03;;;;;;;6.93;3.90;;;32.70;1.00;;;;;;5116632;28;20210;-88
2022/05/02 07:00:37;;;;;;;6.97;4.05;;;33.10;1.00;;;;;;5116432;28;20661;-90
2022/05/02 07:03:20;;;;;;;5.65;3.85;;;33.60;1.00;;;;;;5116757;28;20202;-89
2022/05/02 07:06:00;;;;;;;5.65;4.18;;;34.00;1.00;;;;;;5116365;28;20186;-88
2022/05/02 07:08:30;;;;;;;11.02;9.13;;;34.10;1.00;;;;;;5116679;28;20597;-88
2022/05/02 07:11:03;;;;;;;4.97;3.97;;;34.40;1.00;;;;;;5117053;28;20201;-88
2022/05/02 07:13:44;;;;;;;4.10;3.67;;;34.90;1.00;;;;;;5117449;28;20186;-88
2022/05/02 07:16:21;;;;;;;5.03;3.67;;;35.00;1.00;;;;;;5116382;28;20625;-89
2022/05/02 07:19:01;;;;;;;7.20;4.22;;;35.10;1.00;;;;;;5118155;28;20178;-87
2022/05/02 07:21:38;;;;;;;20.25;17.05;;;35.30;1.00;;;;;;5118267;28;20273;-88
2022/05/02 07:24:16;;;;;;;9.05;6.15;;;35.70;1.00;;;;;;5117696;28;20185;-89
2022/05/02 07:26:49;;;;;;;10.20;9.18;;;35.80;1.00;;;;;;5116769;28;20328;-88
2022/05/02 07:29:18;;;;;;;5.70;3.80;;;35.60;1.00;;;;;;5118827;28;20221;-89
2022/05/02 07:31:47;;;;;;;6.47;4.50;;;35.50;1.00;;;;;;5117007;28;20662;-88
2022/05/02 07:34:15;;;;;;;4.70;3.10;;;35.60;1.00;;;;;;5117150;28;20214;-87
2022/05/02 07:36:50;;;;;;;6.22;5.63;;;35.70;1.00;;;;;;5116877;28;20191;-89
2022/05/02 07:39:21;;;;;;;4.40;3.40;;;35.80;1.00;;;;;;5119613;28;20199;-87
2022/05/02 07:41:50;;;;;;;7.28;3.58;;;35.90;1.00;;;;;;5122575;28;20558;-88
2022/05/02 07:44:20;;;;;;;5.95;4.22;;;36.20;1.00;;;;;;5120331;28;20284;-87
2022/05/02 07:46:51;;;;;;;4.47;3.83;;;35.70;1.00;;;;;;5115532;28;20193;-90
2022/05/02 07:49:24;;;;;;;6.80;3.88;;;35.00;1.00;;;;;;5115467;28;20179;-87
2022/05/02 07:51:52;;;;;;;7.50;4.30;;;34.50;1.00;;;;;;5115850;28;20673;-88
2022/05/02 07:54:22;;;;;;;5.43;4.25;;;34.30;1.00;;;;;;5115495;28;20233;-89
2022/05/02 07:56:51;;;;;;;3.90;3.47;;;34.40;1.00;;;;;;5116387;28;20222;-87
2022/05/02 07:59:21;;;;;;;11.55;5.75;;;34.60;1.00;;;;;;5115463;28;20190;-87
2022/05/02 08:01:48;;;;;;;7.35;3.70;;;34.90;1.00;;;;;;5115456;28;20222;-89
2022/05/02 08:04:16;;;;;;;5.40;3.38;;;35.10;1.00;;;;;;5115533;28;20226;-90
2022/05/02 08:06:54;;;;;;;5.45;3.58;;;35.10;1.00;;;;;;5115323;28;20620;-87
2022/05/02 08:09:58;;;;;;;7.75;3.85;;;35.10;1.00;;;;;;5115571;27;20221;-87
2022/05/02 08:12:29;;;;;;;124.00;88.45;;;35.30;1.00;;;;;;5095436;28;20225;-89
2022/05/02 08:15:03;;;;;;;9.98;5.80;;;35.50;1.00;;;;;;5116435;28;20231;-86
2022/05/02 08:17:57;;;;;;;6.15;4.15;;;35.60;1.00;;;;;;5115748;28;20271;-88
2022/05/02 08:20:32;;;;;;;14.95;3.83;;;35.80;1.00;;;;;;5115241;28;20210;-87
2022/05/02 08:29:03;;;;;;;4.85;2.90;;;35.10;1.00;;;;;;5115035;28;20569;-88
2022/05/02 08:31:42;;;;;;;7.18;5.03;;;34.60;1.00;;;;;;5115355;28;20692;-87
2022/05/02 08:34:24;;;;;;;16.60;9.68;;;34.80;1.00;;;;;;5114342;28;20202;-87
2022/05/02 08:37:02;;;;;;;4.93;3.33;;;34.90;1.00;;;;;;5114439;28;20185;-88
2022/05/02 08:39:37;;;;;;;5.00;2.75;;;34.90;1.00;;;;;;5115149;27;20181;-87
2022/05/02 08:42:41;;;;;;;3.85;2.35;;;34.90;1.00;;;;;;5114823;28;20185;-88
2022/05/02 08:45:44;;;;;;;5.45;2.78;;;34.80;1.00;;;;;;5114092;28;20643;-86
2022/05/02 08:52:21;;;;;;;5.80;3.03;;;34.70;1.00;;;;;;5114174;28;20177;-87
2022/05/02 08:55:07;;;;;;;5.60;2.50;;;34.70;1.00;;;;;;5114224;28;20205;-86
2022/05/02 08:58:02;;;;;;;7.82;3.00;;;34.60;1.00;;;;;;5099684;28;20194;-89
2022/05/02 09:00:36;;;;;;;5.38;2.78;;;34.40;1.00;;;;;;5113768;28;20634;-86
2022/05/02 09:03:37;;;;;;;4.95;2.65;;;34.30;1.00;;;;;;5114226;28;20631;-87
2022/05/02 09:06:30;;;;;;;4.40;3.05;;;34.20;1.00;;;;;;5114303;28;20281;-87
2022/05/02 09:09:23;;;;;;;5.07;3.78;;;33.70;1.00;;;;;;5114194;28;20226;-87
2022/05/02 09:12:26;;;;;;;7.20;3.38;;;33.70;1.00;;;;;;5114121;28;20265;-86
2022/05/02 09:20:56;;;;;;;16.25;4.07;;;32.90;1.00;;;;;;4971853;28;20211;-87
2022/05/02 09:24:03;;;;;;;18.65;16.38;;;32.30;1.00;;;;;;4974610;28;20295;-88
2022/05/02 09:26:57;;;;;;;5.32;4.28;;;31.90;1.00;;;;;;4949598;28;20552;-86
2022/05/02 09:30:12;;;;;;;19.73;6.38;;;31.30;1.00;;;;;;4974466;28;20200;-86
2022/05/02 09:33:04;;;;;;;5.00;3.60;;;30.80;1.00;;;;;;4974259;28;20259;-86
2022/05/02 09:35:33;;;;;;;6.15;3.58;;;30.50;1.00;;;;;;4974364;28;20211;-86
2022/05/02 09:38:16;;;;;;;4.20;3.20;;;29.80;1.00;;;;;;4974333;28;20203;-86
2022/05/02 09:40:44;;;;;;;4.38;3.30;;;29.00;1.00;;;;;;4974660;28;20194;-86
2022/05/02 09:49:33;;;;;;;7.25;3.80;;;28.40;1.00;;;;;;4974718;28;20188;-87
2022/05/02 09:49:37;;;;;;;7.53;3.40;;;27.30;1.00;;;;;;4974472;28;20186;-86
2022/05/02 09:52:10;;;;;;;4.28;3.35;;;26.70;1.00;;;;;;4973950;28;20195;-85
2022/05/02 09:58:08;;;;;;;5.47;4.18;;;26.10;1.00;;;;;;4973850;28;20172;-85
2022/05/02 10:01:09;;;;;;;5.18;4.20;;;25.70;1.00;;;;;;4974188;28;20183;-86
2022/05/02 10:03:39;;;;;;;4.80;3.58;;;25.40;1.00;;;;;;4973684;28;20648;-86
2022/05/02 10:06:08;;;;;;;6.28;4.00;;;25.10;1.00;;;;;;4974092;28;20151;-86
2022/05/02 10:08:54;;;;;;;10.85;4.47;;;24.90;1.00;;;;;;4973579;28;20184;-86
2022/05/02 10:11:51;;;;;;;5.55;3.25;;;24.70;1.00;;;;;;4973775;28;20220;-86
2022/05/02 10:14:47;;;;;;;3.55;3.03;;;24.40;1.00;;;;;;4971817;28;20203;-86
2022/05/02 10:17:17;;;;;;;6.13;3.30;;;24.20;1.00;;;;;;4973730;28;20235;-86
2022/05/02 10:20:05;;;;;;;5.97;3.97;;;24.10;1.00;;;;;;4973937;28;20282;-86
2022/05/02 10:22:39;;;;;;;;;;;23.90;1.00;;;;;;4955060;28;20057;-88
2022/05/02 10:25:12;;;;;;;6.03;4.20;;;23.80;1.00;;;;;;4954225;28;20639;-85
2022/05/02 10:27:53;;;;;;;7.93;4.20;;;23.60;1.00;;;;;;4954156;28;20188;-86
2022/05/02 10:30:20;;;;;;;9.60;3.50;;;23.50;1.00;;;;;;4954533;28;20208;-87
2022/05/02 10:32:56;;;;;;;6.85;3.60;;;23.50;1.00;;;;;;4954412;28;20287;-87
2022/05/02 10:35:24;;;;;;;7.15;3.60;;;23.60;1.00;;;;;;4953965;28;20767;-87
2022/05/02 10:37:57;;;;;;;4.57;3.50;;;23.60;1.00;;;;;;4954477;28;20200;-86
2022/05/02 10:40:33;;;;;;;9.32;6.10;;;23.50;1.00;;;;;;4954522;28;20196;-87
2022/05/02 10:43:05;;;;;;;16.17;10.80;;;23.30;1.00;;;;;;4954288;28;20206;-85
2022/05/02 10:45:34;;;;;;;18.80;10.55;;;23.20;1.00;;;;;;4954330;28;20235;-86
2022/05/02 10:48:23;;;;;;;6.35;3.30;;;23.20;1.00;;;;;;4954200;28;20208;-86
2022/05/02 10:51:02;;;;;;;37.03;22.60;;;23.00;1.00;;;;;;4959736;28;20204;-86
2022/05/02 10:53:51;;;;;;;16.17;10.23;;;22.90;1.00;;;;;;4972761;28;20232;-86
2022/05/02 10:56:21;;;;;;;5.63;3.20;;;22.80;1.00;;;;;;4973461;28;20299;-86
2022/05/02 10:58:50;;;;;;;10.65;7.75;;;22.80;1.00;;;;;;4973169;28;20660;-86
2022/05/02 11:01:40;;;;;;;6.50;3.75;;;22.60;1.00;;;;;;4973560;28;20199;-85
2022/05/02 11:04:21;;;;;;;6.68;3.55;;;22.50;1.00;;;;;;4973465;28;20250;-85
2022/05/02 11:06:58;;;;;;;16.10;10.75;;;22.50;1.00;;;;;;4973145;28;20699;-85
2022/05/02 11:09:36;;;;;;;3.72;3.15;;;22.50;1.00;;;;;;4973489;28;20219;-86
2022/05/02 11:12:04;;;;;;;5.30;3.42;;;22.50;1.00;;;;;;4973272;28;20190;-86
2022/05/02 11:14:46;;;;;;;7.25;3.65;;;22.40;1.00;;;;;;4973425;28;20274;-86
2022/05/02 11:17:22;;;;;;;6.82;3.90;;;22.50;1.00;;;;;;4973416;28;20219;-85
2022/05/02 11:22:53;;;;;;;4.40;3.38;;;22.00;1.00;;;;;;4967146;28;20207;-85
2022/05/02 11:25:22;;;;;;;5.55;4.63;;;21.90;1.00;;;;;;4976423;28;20226;-86
2022/05/02 11:28:00;;;;;;;8.00;3.50;;;21.90;1.00;;;;;;4976550;28;20287;-85
2022/05/02 11:30:29;;;;;;;4.53;3.33;;;22.00;1.00;;;;;;4976639;28;20263;-86
2022/05/02 11:33:15;;;;;;;7.47;3.92;;;22.10;1.00;;;;;;4976767;28;20259;-85
2022/05/02 11:35:48;;;;;;;3.75;3.10;;;22.00;1.00;;;;;;4976438;28;20211;-85
2022/05/02 11:38:32;;;;;;;9.73;3.70;;;22.00;1.00;;;;;;4976440;28;20266;-85
2022/05/02 11:41:00;;;;;;;5.80;4.30;;;21.90;1.00;;;;;;4976230;28;20227;-86
2022/05/02 11:43:31;;;;;;;7.60;3.70;;;21.90;1.00;;;;;;4976456;28;20238;-85
2022/05/02 11:46:10;;;;;;;4.10;3.70;;;21.90;1.00;;;;;;4976625;28;20219;-86
2022/05/02 11:48:59;;;;;;;4.07;3.30;;;21.80;1.00;;;;;;4976057;28;20541;-85
2022/05/02 11:51:34;;;;;;;;;;;21.70;1.00;;;;;;4976125;28;20192;-85
2022/05/02 11:54:09;;;;;;;7.82;3.85;;;21.80;1.00;;;;;;4976384;28;20367;-85
2022/05/02 11:56:41;;;;;;;7.05;4.60;;;21.80;1.00;;;;;;4976042;28;20297;-85
2022/05/02 11:59:13;;;;;;;6.53;4.25;;;21.80;1.00;;;;;;4976110;28;20191;-86
2022/05/02 12:01:47;;;;;;;7.32;4.40;;;21.80;1.00;;;;;;4976276;28;20755;-85
2022/05/02 12:04:17;;;;;;;8.30;4.03;;;21.80;1.00;;;;;;4976012;28;20211;-86
2022/05/02 12:07:00;;;;;;;5.07;3.78;;;21.70;1.00;;;;;;4975999;28;20202;-85
2022/05/02 12:09:29;;;;;;;8.88;6.28;;;21.70;1.00;;;;;;4975969;28;20202;-85
2022/05/02 12:11:58;;;;;;;9.77;6.28;;;21.60;1.00;;;;;;4976529;28;20294;-86
2022/05/02 12:14:25;;;;;;;5.90;4.28;;;21.60;1.00;;;;;;4975593;28;20203;-86
2022/05/02 12:17:09;;;;;;;7.65;3.83;;;21.50;1.00;;;;;;4975747;28;20310;-85
2022/05/02 12:19:37;;;;;;;8.10;4.25;;;21.50;1.00;;;;;;4975353;28;20228;-87
2022/05/02 12:22:08;;;;;;;8.45;4.20;;;21.40;1.00;;;;;;4975629;28;20282;-86
2022/05/02 12:24:36;;;;;;;;;;;21.40;1.00;;;;;;4976093;28;20159;-85
2022/05/02 12:27:08;;;;;;;5.90;4.95;;;21.30;1.00;;;;;;4975622;28;20193;-86
2022/05/02 12:29:36;;;;;;;12.52;8.63;;;21.20;1.00;;;;;;4975884;28;20259;-86
2022/05/02 12:32:07;;;;;;;7.45;4.40;;;21.20;1.00;;;;;;4975160;28;20668;-87
2022/05/02 12:34:38;;;;;;;5.80;3.90;;;21.30;1.00;;;;;;4974658;28;20275;-86
2022/05/02 12:37:09;;;;;;;5.28;3.83;;;21.40;1.00;;;;;;4975379;28;20255;-86
2022/05/02 12:39:47;;;;;;;6.03;4.38;;;21.40;1.00;;;;;;4975547;28;20188;-86
2022/05/02 12:42:17;;;;;;;5.75;4.20;;;21.50;1.00;;;;;;4975580;28;20186;-86
2022/05/02 12:44:47;;;;;;;6.00;3.92;;;21.50;1.00;;;;;;4975301;28;20226;-87
2022/05/02 12:47:20;;;;;;;5.53;3.58;;;21.40;1.00;;;;;;4975238;28;20199;-86
2022/05/02 12:50:01;;;;;;;5.10;3.67;;;21.50;1.00;;;;;;4975358;28;20195;-86
2022/05/02 12:52:29;;;;;;;7.60;4.10;;;21.50;1.00;;;;;;4974919;28;20239;-85
2022/05/02 12:54:57;;;;;;;6.75;4.00;;;21.50;1.00;;;;;;4975038;28;20278;-86
2022/05/02 13:00:35;;;;;;;4.97;3.97;;;21.50;1.00;;;;;;4974937;28;20191;-85
2022/05/02 13:03:15;;;;;;;6.95;4.53;;;21.30;1.00;;;;;;4975099;28;20184;-87
2022/05/02 13:05:52;;;;;;;6.63;3.78;;;21.10;1.00;;;;;;4975147;28;20377;-87
2022/05/02 13:08:29;;;;;;;4.47;3.47;;;21.00;1.00;;;;;;4975131;28;20206;-86
2022/05/02 13:11:05;;;;;;;6.28;4.20;;;20.90;1.00;;;;;;4974549;28;20627;-86
2022/05/02 13:13:40;;;;;;;7.82;4.25;;;21.00;1.00;;;;;;4974878;28;20215;-86
2022/05/02 13:16:15;;;;;;;4.32;3.63;;;21.00;1.00;;;;;;4974881;28;20214;-87
2022/05/02 13:18:48;;;;;;;5.07;3.33;;;21.10;1.00;;;;;;4973858;28;21641;-86
2022/05/02 13:21:16;;;;;;;5.43;3.92;;;21.00;1.00;;;;;;4974398;28;20187;-87
2022/05/02 13:23:45;;;;;;;6.05;3.72;;;21.00;1.00;;;;;;4974268;28;20290;-86
2022/05/02 13:26:52;;;;;;;5.00;3.63;;;21.00;1.00;;;;;;4974585;28;20638;-87
2022/05/02 13:29:37;;;;;;;6.45;4.22;;;21.00;1.00;;;;;;4974579;28;20592;-89
2022/05/02 13:32:05;;;;;;;6.68;4.30;;;21.00;1.00;;;;;;4975658;28;20278;-89
2022/05/02 13:34:49;;;;;;;6.50;3.78;;;20.80;1.00;;;;;;4975713;28;20290;-88
2022/05/02 13:37:32;;;;;;;5.65;3.63;;;20.70;1.00;;;;;;4975983;28;20219;-89
2022/05/02 13:40:08;;;;;;;5.93;4.45;;;20.70;1.00;;;;;;4974394;28;20180;-87
2022/05/02 13:42:50;;;;;;;7.55;3.45;;;20.70;1.00;;;;;;4974583;28;20188;-86
2022/05/02 13:45:30;;;;;;;7.97;4.40;;;20.70;1.00;;;;;;4974112;28;20666;-86
2022/05/02 13:48:13;;;;;;;6.10;3.55;;;20.70;1.00;;;;;;4974425;28;20262;-90
2022/05/02 13:50:46;;;;;;;9.95;4.43;;;20.60;1.00;;;;;;4973826;28;20570;-88
2022/05/02 13:53:24;;;;;;;10.10;4.40;;;20.60;1.00;;;;;;4974089;28;20672;-89
2022/05/02 13:55:58;;;;;;;13.88;5.78;;;20.50;1.00;;;;;;4973868;28;20203;-93
2022/05/02 13:58:40;;;;;;;17.70;9.30;;;20.50;1.00;;;;;;4973934;28;20275;-89
2022/05/02 14:04:14;;;;;;;6.60;4.10;;;20.30;1.00;;;;;;4973748;28;20664;-88
2022/05/02 14:06:59;;;;;;;5.20;3.78;;;20.30;1.00;;;;;;4974372;28;20198;-92
2022/05/02 14:09:40;;;;;;;7.28;3.65;;;20.30;1.00;;;;;;4974216;28;20192;-92
2022/05/02 14:12:10;;;;;;;5.53;4.30;;;20.30;1.00;;;;;;4974577;28;20590;-91
2022/05/02 14:14:56;;;;;;;7.18;5.07;;;20.30;1.00;;;;;;4974410;28;20270;-89